Forside
METAR-TAF:

METAR-TAF

Lufthavne :

Fort Smith, Northwest Territories, Canada

Breddekreds: 60-01N, længdekreds: 111-57W, højde: 203 m

Aktuelle vejr

Denne rapport blev lavet for 26 minutter siden, kl. 07:00 UTC
Vind 4 kt fra sydøst
Temperatur -2°C
Fugtighed 80%
Tryk 1022 hPa
Sigt: 24.1 km
Brudte skyer i en højde af 1500 ft

METAR: CYSM 220700Z 14004KT 15SM BKN015 M02/M05 A3017 RMK SC6 SLP233

Tid: 01:26 (07:26 UTC)

Vejrudsigter

Denne rapport blev lavet for 1 time og 48 minutter siden, kl. 05:38 UTC
Foreløbig gælder fra 22 på 06 UTC til 22 på 18 UTC
Vind 3 kt fra øst
Sigt: 10 km
Overskyet i en højde af 1500 ft
Midlertidig
fra 22 på 06 UTC til 22 på 09 UTC
Spredte skyer i en højde af 1500 ft
Fra 22 på 0900 UTC
Vind 8 kt fra sydsydøst
Sigt: 10 km
Nogle få skyer i en højde af 800 ft
Sandsynlighed 30%
fra 22 på 10 UTC til 22 på 14 UTC
Sigt: 0.8 km
rimtåge

TAF: CYSM 220538Z 2206/2218 10003KT P6SM OVC015 TEMPO 2206/2209 SCT015 FM220900 15008KT P6SM FEW008 PROB30 2210/2214 1/2SM FZFG RMK NXT FCST BY 221200Z

Vejrobservationer og prognoser fra mere end 4000 lufthavne (METAR og TAF).

De gule og røde prikker repræsenterer de meteorologiske stationer.

Flyt musen over at se navnet på stationen.

Så klik over at se vejr observationer og prognoser.

At skifte det kort: Klik på de grønne knapper med et sort kors for at zoome ind; på den grønne knap med en bindestreg for at zoome ud; eller på de grønne pile for tilstødende kort.


METAR-TAF: